sensor_id;sensor_type;location;lat;lon;timestamp;temperature;humidity
51719;DHT22;37795;53.236;5.704;2023-05-03T00:00:52;7.20;72.20
51719;DHT22;37795;53.236;5.704;2023-05-03T00:03:18;7.30;72.10
51719;DHT22;37795;53.236;5.704;2023-05-03T00:05:47;7.20;71.90
51719;DHT22;37795;53.236;5.704;2023-05-03T00:08:13;7.00;71.70
51719;DHT22;37795;53.236;5.704;2023-05-03T00:10:38;7.00;72.00
51719;DHT22;37795;53.236;5.704;2023-05-03T00:13:04;7.20;72.50
51719;DHT22;37795;53.236;5.704;2023-05-03T00:15:30;7.20;72.60
51719;DHT22;37795;53.236;5.704;2023-05-03T00:17:56;7.20;72.50
51719;DHT22;37795;53.236;5.704;2023-05-03T00:20:22;7.30;72.70
51719;DHT22;37795;53.236;5.704;2023-05-03T00:22:49;7.30;72.70
51719;DHT22;37795;53.236;5.704;2023-05-03T00:25:15;7.10;72.10
51719;DHT22;37795;53.236;5.704;2023-05-03T00:27:41;7.20;72.20
51719;DHT22;37795;53.236;5.704;2023-05-03T00:30:07;7.20;72.50
51719;DHT22;37795;53.236;5.704;2023-05-03T00:32:34;7.20;72.80
51719;DHT22;37795;53.236;5.704;2023-05-03T00:35:00;7.30;73.00
51719;DHT22;37795;53.236;5.704;2023-05-03T00:37:26;7.30;73.20
51719;DHT22;37795;53.236;5.704;2023-05-03T00:39:52;7.30;73.00
51719;DHT22;37795;53.236;5.704;2023-05-03T00:42:18;7.30;72.90
51719;DHT22;37795;53.236;5.704;2023-05-03T00:44:44;7.40;72.90
51719;DHT22;37795;53.236;5.704;2023-05-03T00:47:10;7.40;73.10
51719;DHT22;37795;53.236;5.704;2023-05-03T00:49:36;7.40;73.30
51719;DHT22;37795;53.236;5.704;2023-05-03T00:52:02;7.30;73.30
51719;DHT22;37795;53.236;5.704;2023-05-03T00:54:28;7.20;73.30
51719;DHT22;37795;53.236;5.704;2023-05-03T00:56:55;7.30;73.60
51719;DHT22;37795;53.236;5.704;2023-05-03T00:59:21;7.40;73.80
51719;DHT22;37795;53.236;5.704;2023-05-03T01:01:49;7.40;73.90
51719;DHT22;37795;53.236;5.704;2023-05-03T01:04:15;7.40;73.90
51719;DHT22;37795;53.236;5.704;2023-05-03T01:10:39;7.40;74.20
51719;DHT22;37795;53.236;5.704;2023-05-03T01:13:09;7.30;74.20
51719;DHT22;37795;53.236;5.704;2023-05-03T01:18:30;7.30;73.50
51719;DHT22;37795;53.236;5.704;2023-05-03T01:20:59;7.30;73.50
51719;DHT22;37795;53.236;5.704;2023-05-03T01:23:42;7.30;73.20
51719;DHT22;37795;53.236;5.704;2023-05-03T01:26:15;7.20;72.60
51719;DHT22;37795;53.236;5.704;2023-05-03T01:28:41;7.10;72.30
51719;DHT22;37795;53.236;5.704;2023-05-03T01:31:07;7.10;72.30
51719;DHT22;37795;53.236;5.704;2023-05-03T01:33:39;7.10;72.00
51719;DHT22;37795;53.236;5.704;2023-05-03T01:36:29;7.00;71.60
51719;DHT22;37795;53.236;5.704;2023-05-03T01:39:02;6.90;71.00
51719;DHT22;37795;53.236;5.704;2023-05-03T01:41:29;6.60;70.70
51719;DHT22;37795;53.236;5.704;2023-05-03T01:43:56;6.50;70.60
51719;DHT22;37795;53.236;5.704;2023-05-03T01:46:22;6.60;70.30
51719;DHT22;37795;53.236;5.704;2023-05-03T01:48:48;6.60;69.80
51719;DHT22;37795;53.236;5.704;2023-05-03T01:51:13;6.70;69.20
51719;DHT22;37795;53.236;5.704;2023-05-03T01:53:39;6.70;69.10
51719;DHT22;37795;53.236;5.704;2023-05-03T01:56:06;6.60;68.50
51719;DHT22;37795;53.236;5.704;2023-05-03T01:58:33;6.60;68.70
51719;DHT22;37795;53.236;5.704;2023-05-03T02:00:58;6.70;69.00
51719;DHT22;37795;53.236;5.704;2023-05-03T02:03:24;6.80;68.50
51719;DHT22;37795;53.236;5.704;2023-05-03T02:05:50;6.90;68.20
51719;DHT22;37795;53.236;5.704;2023-05-03T02:08:15;7.00;67.70
51719;DHT22;37795;53.236;5.704;2023-05-03T02:10:44;6.90;65.50
51719;DHT22;37795;53.236;5.704;2023-05-03T02:13:10;7.00;66.10
51719;DHT22;37795;53.236;5.704;2023-05-03T02:15:35;7.00;66.10
51719;DHT22;37795;53.236;5.704;2023-05-03T02:18:01;7.00;65.90
51719;DHT22;37795;53.236;5.704;2023-05-03T02:20:27;7.10;65.60
51719;DHT22;37795;53.236;5.704;2023-05-03T02:22:53;7.10;65.80
51719;DHT22;37795;53.236;5.704;2023-05-03T02:25:19;7.20;67.10
51719;DHT22;37795;53.236;5.704;2023-05-03T02:27:44;7.20;67.80
51719;DHT22;37795;53.236;5.704;2023-05-03T02:30:10;7.30;68.70
51719;DHT22;37795;53.236;5.704;2023-05-03T02:32:36;7.30;69.40
51719;DHT22;37795;53.236;5.704;2023-05-03T02:35:02;7.20;69.30
51719;DHT22;37795;53.236;5.704;2023-05-03T02:37:28;7.20;69.30
51719;DHT22;37795;53.236;5.704;2023-05-03T02:39:54;7.30;69.30
51719;DHT22;37795;53.236;5.704;2023-05-03T02:42:20;7.30;69.10
51719;DHT22;37795;53.236;5.704;2023-05-03T02:44:45;7.30;69.10
51719;DHT22;37795;53.236;5.704;2023-05-03T02:47:11;7.30;69.20
51719;DHT22;37795;53.236;5.704;2023-05-03T02:49:36;7.30;69.00
51719;DHT22;37795;53.236;5.704;2023-05-03T02:52:02;7.30;68.80
51719;DHT22;37795;53.236;5.704;2023-05-03T02:54:28;7.30;68.90
51719;DHT22;37795;53.236;5.704;2023-05-03T02:56:54;7.20;68.60
51719;DHT22;37795;53.236;5.704;2023-05-03T02:59:20;7.10;68.50
51719;DHT22;37795;53.236;5.704;2023-05-03T03:01:46;7.10;68.80
51719;DHT22;37795;53.236;5.704;2023-05-03T03:04:11;7.10;69.10
51719;DHT22;37795;53.236;5.704;2023-05-03T03:06:37;7.20;69.20
51719;DHT22;37795;53.236;5.704;2023-05-03T03:09:03;7.20;69.30
51719;DHT22;37795;53.236;5.704;2023-05-03T03:11:29;7.20;69.40
51719;DHT22;37795;53.236;5.704;2023-05-03T03:13:55;7.20;69.30
51719;DHT22;37795;53.236;5.704;2023-05-03T03:16:21;7.20;69.60
51719;DHT22;37795;53.236;5.704;2023-05-03T03:18:47;7.30;69.80
51719;DHT22;37795;53.236;5.704;2023-05-03T03:21:12;7.30;69.70
51719;DHT22;37795;53.236;5.704;2023-05-03T03:23:38;7.40;69.50
51719;DHT22;37795;53.236;5.704;2023-05-03T03:26:04;7.30;69.00
51719;DHT22;37795;53.236;5.704;2023-05-03T03:28:30;7.20;69.10
51719;DHT22;37795;53.236;5.704;2023-05-03T03:30:56;7.20;68.90
51719;DHT22;37795;53.236;5.704;2023-05-03T03:33:22;7.20;68.70
51719;DHT22;37795;53.236;5.704;2023-05-03T03:35:47;7.20;68.40
51719;DHT22;37795;53.236;5.704;2023-05-03T03:38:13;7.30;68.60
51719;DHT22;37795;53.236;5.704;2023-05-03T03:40:39;7.40;69.20
51719;DHT22;37795;53.236;5.704;2023-05-03T03:43:05;7.50;69.90
51719;DHT22;37795;53.236;5.704;2023-05-03T03:45:30;7.50;70.40
51719;DHT22;37795;53.236;5.704;2023-05-03T03:47:56;7.40;71.00
51719;DHT22;37795;53.236;5.704;2023-05-03T03:50:24;7.40;71.40
51719;DHT22;37795;53.236;5.704;2023-05-03T03:52:49;7.30;71.80
51719;DHT22;37795;53.236;5.704;2023-05-03T03:55:15;7.30;72.00
51719;DHT22;37795;53.236;5.704;2023-05-03T03:57:41;7.30;71.40
51719;DHT22;37795;53.236;5.704;2023-05-03T04:00:07;7.30;71.20
51719;DHT22;37795;53.236;5.704;2023-05-03T04:02:34;7.20;69.90
51719;DHT22;37795;53.236;5.704;2023-05-03T04:05:00;7.30;68.40
51719;DHT22;37795;53.236;5.704;2023-05-03T04:07:26;7.20;68.10
51719;DHT22;37795;53.236;5.704;2023-05-03T04:09:52;7.20;67.80
51719;DHT22;37795;53.236;5.704;2023-05-03T04:12:18;7.20;67.90
51719;DHT22;37795;53.236;5.704;2023-05-03T04:14:43;7.30;67.80
51719;DHT22;37795;53.236;5.704;2023-05-03T04:17:10;7.20;67.80
51719;DHT22;37795;53.236;5.704;2023-05-03T04:19:35;7.30;68.10
51719;DHT22;37795;53.236;5.704;2023-05-03T04:22:03;7.30;68.70
51719;DHT22;37795;53.236;5.704;2023-05-03T04:24:29;7.40;69.50
51719;DHT22;37795;53.236;5.704;2023-05-03T04:26:55;7.30;69.80
51719;DHT22;37795;53.236;5.704;2023-05-03T04:29:21;7.30;69.10
51719;DHT22;37795;53.236;5.704;2023-05-03T04:31:47;7.30;68.40
51719;DHT22;37795;53.236;5.704;2023-05-03T04:34:12;7.20;68.10
51719;DHT22;37795;53.236;5.704;2023-05-03T04:36:41;7.30;68.30
51719;DHT22;37795;53.236;5.704;2023-05-03T04:39:07;7.30;68.80
51719;DHT22;37795;53.236;5.704;2023-05-03T04:41:36;7.30;68.80
51719;DHT22;37795;53.236;5.704;2023-05-03T04:44:01;7.20;68.20
51719;DHT22;37795;53.236;5.704;2023-05-03T04:46:27;7.30;68.10
51719;DHT22;37795;53.236;5.704;2023-05-03T04:48:53;7.40;67.30
51719;DHT22;37795;53.236;5.704;2023-05-03T04:51:18;7.40;66.30
51719;DHT22;37795;53.236;5.704;2023-05-03T04:53:44;7.40;65.70
51719;DHT22;37795;53.236;5.704;2023-05-03T04:56:10;7.50;65.30
51719;DHT22;37795;53.236;5.704;2023-05-03T04:58:36;7.50;64.40
51719;DHT22;37795;53.236;5.704;2023-05-03T05:01:02;7.60;64.80
51719;DHT22;37795;53.236;5.704;2023-05-03T05:03:28;7.50;64.40
51719;DHT22;37795;53.236;5.704;2023-05-03T05:05:55;7.40;65.10
51719;DHT22;37795;53.236;5.704;2023-05-03T05:08:21;7.50;65.20
51719;DHT22;37795;53.236;5.704;2023-05-03T05:10:47;7.60;65.20
51719;DHT22;37795;53.236;5.704;2023-05-03T05:13:13;7.60;65.00
51719;DHT22;37795;53.236;5.704;2023-05-03T05:15:39;7.70;65.20
51719;DHT22;37795;53.236;5.704;2023-05-03T05:18:05;7.80;65.20
51719;DHT22;37795;53.236;5.704;2023-05-03T05:20:30;7.70;62.20
51719;DHT22;37795;53.236;5.704;2023-05-03T05:22:56;7.80;63.00
51719;DHT22;37795;53.236;5.704;2023-05-03T05:25:22;7.90;62.70
51719;DHT22;37795;53.236;5.704;2023-05-03T05:27:48;8.00;63.10
51719;DHT22;37795;53.236;5.704;2023-05-03T05:30:13;8.00;63.30
51719;DHT22;37795;53.236;5.704;2023-05-03T05:32:39;8.00;63.40
51719;DHT22;37795;53.236;5.704;2023-05-03T05:35:05;8.00;63.70
51719;DHT22;37795;53.236;5.704;2023-05-03T05:37:31;8.10;64.00
51719;DHT22;37795;53.236;5.704;2023-05-03T05:39:56;8.10;64.40
51719;DHT22;37795;53.236;5.704;2023-05-03T05:42:22;8.20;64.30
51719;DHT22;37795;53.236;5.704;2023-05-03T05:44:48;8.10;63.50
51719;DHT22;37795;53.236;5.704;2023-05-03T05:47:14;8.20;63.70
51719;DHT22;37795;53.236;5.704;2023-05-03T05:49:40;8.30;63.50
51719;DHT22;37795;53.236;5.704;2023-05-03T05:52:05;8.20;62.80
51719;DHT22;37795;53.236;5.704;2023-05-03T05:54:32;8.20;63.40
51719;DHT22;37795;53.236;5.704;2023-05-03T05:56:57;8.20;63.50
51719;DHT22;37795;53.236;5.704;2023-05-03T05:59:23;8.20;63.30
51719;DHT22;37795;53.236;5.704;2023-05-03T06:01:49;8.30;62.50
51719;DHT22;37795;53.236;5.704;2023-05-03T06:04:15;8.30;62.50
51719;DHT22;37795;53.236;5.704;2023-05-03T06:06:41;8.40;63.30
51719;DHT22;37795;53.236;5.704;2023-05-03T06:09:07;8.40;63.40
51719;DHT22;37795;53.236;5.704;2023-05-03T06:11:36;8.40;62.00
51719;DHT22;37795;53.236;5.704;2023-05-03T06:14:02;8.40;62.40
51719;DHT22;37795;53.236;5.704;2023-05-03T06:16:29;8.60;63.00
51719;DHT22;37795;53.236;5.704;2023-05-03T06:18:54;8.70;62.60
51719;DHT22;37795;53.236;5.704;2023-05-03T06:21:20;8.80;62.50
51719;DHT22;37795;53.236;5.704;2023-05-03T06:23:46;8.70;61.00
51719;DHT22;37795;53.236;5.704;2023-05-03T06:26:12;8.80;60.30
51719;DHT22;37795;53.236;5.704;2023-05-03T06:28:38;8.70;59.70
51719;DHT22;37795;53.236;5.704;2023-05-03T06:31:04;8.60;60.30
51719;DHT22;37795;53.236;5.704;2023-05-03T06:33:29;8.70;60.80
51719;DHT22;37795;53.236;5.704;2023-05-03T06:35:55;8.70;60.50
51719;DHT22;37795;53.236;5.704;2023-05-03T06:38:21;8.60;58.30
51719;DHT22;37795;53.236;5.704;2023-05-03T06:40:47;8.60;59.30
51719;DHT22;37795;53.236;5.704;2023-05-03T06:43:14;8.70;58.50
51719;DHT22;37795;53.236;5.704;2023-05-03T06:45:41;8.70;57.80
51719;DHT22;37795;53.236;5.704;2023-05-03T06:48:07;8.80;58.30
51719;DHT22;37795;53.236;5.704;2023-05-03T06:56:28;9.30;57.50
51719;DHT22;37795;53.236;5.704;2023-05-03T06:58:54;9.10;58.80
51719;DHT22;37795;53.236;5.704;2023-05-03T07:01:20;9.10;57.20
51719;DHT22;37795;53.236;5.704;2023-05-03T07:03:46;9.10;58.30
51719;DHT22;37795;53.236;5.704;2023-05-03T07:06:12;9.20;57.50
51719;DHT22;37795;53.236;5.704;2023-05-03T07:08:37;9.20;57.50
51719;DHT22;37795;53.236;5.704;2023-05-03T07:11:03;9.30;57.30
51719;DHT22;37795;53.236;5.704;2023-05-03T07:13:29;9.30;57.50
51719;DHT22;37795;53.236;5.704;2023-05-03T07:15:55;9.30;56.70
51719;DHT22;37795;53.236;5.704;2023-05-03T07:18:21;9.30;56.90
51719;DHT22;37795;53.236;5.704;2023-05-03T07:20:47;9.50;57.50
51719;DHT22;37795;53.236;5.704;2023-05-03T07:23:14;9.60;58.00
51719;DHT22;37795;53.236;5.704;2023-05-03T07:25:41;9.50;56.80
51719;DHT22;37795;53.236;5.704;2023-05-03T07:28:07;9.50;56.80
51719;DHT22;37795;53.236;5.704;2023-05-03T07:30:33;9.60;57.10
51719;DHT22;37795;53.236;5.704;2023-05-03T07:32:58;9.70;57.60
51719;DHT22;37795;53.236;5.704;2023-05-03T07:35:25;9.70;56.10
51719;DHT22;37795;53.236;5.704;2023-05-03T07:37:54;9.60;56.30
51719;DHT22;37795;53.236;5.704;2023-05-03T07:40:21;9.60;56.10
51719;DHT22;37795;53.236;5.704;2023-05-03T07:42:47;9.70;56.50
51719;DHT22;37795;53.236;5.704;2023-05-03T07:45:13;9.80;56.70
51719;DHT22;37795;53.236;5.704;2023-05-03T07:47:38;9.70;56.50
51719;DHT22;37795;53.236;5.704;2023-05-03T07:50:05;9.70;57.30
51719;DHT22;37795;53.236;5.704;2023-05-03T07:52:35;9.80;58.00
51719;DHT22;37795;53.236;5.704;2023-05-03T07:55:01;9.80;56.30
51719;DHT22;37795;53.236;5.704;2023-05-03T07:57:28;9.70;57.20
51719;DHT22;37795;53.236;5.704;2023-05-03T07:59:54;9.60;57.10
51719;DHT22;37795;53.236;5.704;2023-05-03T08:02:20;9.60;57.50
51719;DHT22;37795;53.236;5.704;2023-05-03T08:04:46;9.60;57.20
51719;DHT22;37795;53.236;5.704;2023-05-03T08:07:13;9.60;56.40
51719;DHT22;37795;53.236;5.704;2023-05-03T08:09:39;9.60;58.20
51719;DHT22;37795;53.236;5.704;2023-05-03T08:12:05;9.70;58.30
51719;DHT22;37795;53.236;5.704;2023-05-03T08:14:31;9.70;59.00
51719;DHT22;37795;53.236;5.704;2023-05-03T08:16:58;9.60;58.40
51719;DHT22;37795;53.236;5.704;2023-05-03T08:19:24;9.60;57.30
51719;DHT22;37795;53.236;5.704;2023-05-03T08:21:50;9.60;58.30
51719;DHT22;37795;53.236;5.704;2023-05-03T08:24:19;9.80;59.10
51719;DHT22;37795;53.236;5.704;2023-05-03T08:26:45;9.60;58.00
51719;DHT22;37795;53.236;5.704;2023-05-03T08:29:13;9.60;59.20
51719;DHT22;37795;53.236;5.704;2023-05-03T08:31:39;9.70;58.30
51719;DHT22;37795;53.236;5.704;2023-05-03T08:34:06;9.70;59.10
51719;DHT22;37795;53.236;5.704;2023-05-03T08:36:32;9.80;59.20
51719;DHT22;37795;53.236;5.704;2023-05-03T08:38:59;9.70;59.90
51719;DHT22;37795;53.236;5.704;2023-05-03T08:41:29;9.80;59.20
51719;DHT22;37795;53.236;5.704;2023-05-03T08:43:56;9.80;59.00
51719;DHT22;37795;53.236;5.704;2023-05-03T08:46:23;10.00;59.70
51719;DHT22;37795;53.236;5.704;2023-05-03T08:48:51;10.10;60.20
51719;DHT22;37795;53.236;5.704;2023-05-03T08:51:18;10.00;59.80
51719;DHT22;37795;53.236;5.704;2023-05-03T08:53:45;10.00;58.80
51719;DHT22;37795;53.236;5.704;2023-05-03T08:56:17;10.00;59.00
51719;DHT22;37795;53.236;5.704;2023-05-03T08:58:44;10.10;58.70
51719;DHT22;37795;53.236;5.704;2023-05-03T09:01:10;10.10;57.10
51719;DHT22;37795;53.236;5.704;2023-05-03T09:03:36;10.10;57.90
51719;DHT22;37795;53.236;5.704;2023-05-03T09:06:02;10.20;58.00
51719;DHT22;37795;53.236;5.704;2023-05-03T09:08:28;10.20;57.10
51719;DHT22;37795;53.236;5.704;2023-05-03T09:10:55;10.20;57.50
51719;DHT22;37795;53.236;5.704;2023-05-03T09:13:31;9.80;56.10
51719;DHT22;37795;53.236;5.704;2023-05-03T09:15:56;10.00;58.20
51719;DHT22;37795;53.236;5.704;2023-05-03T09:18:23;10.00;57.20
51719;DHT22;37795;53.236;5.704;2023-05-03T09:20:50;9.80;56.20
51719;DHT22;37795;53.236;5.704;2023-05-03T09:25:48;10.30;56.40
51719;DHT22;37795;53.236;5.704;2023-05-03T09:28:16;10.40;58.60
51719;DHT22;37795;53.236;5.704;2023-05-03T09:30:43;10.60;57.80
51719;DHT22;37795;53.236;5.704;2023-05-03T09:33:10;10.60;57.50
51719;DHT22;37795;53.236;5.704;2023-05-03T09:35:59;10.20;56.30
51719;DHT22;37795;53.236;5.704;2023-05-03T09:38:29;10.40;56.60
51719;DHT22;37795;53.236;5.704;2023-05-03T09:40:55;10.60;57.10
51719;DHT22;37795;53.236;5.704;2023-05-03T09:43:21;10.80;56.40
51719;DHT22;37795;53.236;5.704;2023-05-03T09:45:47;10.90;56.40
51719;DHT22;37795;53.236;5.704;2023-05-03T09:48:13;10.90;55.50
51719;DHT22;37795;53.236;5.704;2023-05-03T09:50:42;11.00;56.00
51719;DHT22;37795;53.236;5.704;2023-05-03T09:53:08;11.20;56.40
51719;DHT22;37795;53.236;5.704;2023-05-03T09:55:38;11.20;56.60
51719;DHT22;37795;53.236;5.704;2023-05-03T09:58:05;11.40;56.50
51719;DHT22;37795;53.236;5.704;2023-05-03T10:00:36;11.40;55.30
51719;DHT22;37795;53.236;5.704;2023-05-03T10:03:08;11.10;53.90
51719;DHT22;37795;53.236;5.704;2023-05-03T10:05:53;10.90;55.80
51719;DHT22;37795;53.236;5.704;2023-05-03T10:08:34;11.00;55.10
51719;DHT22;37795;53.236;5.704;2023-05-03T10:11:07;10.90;53.20
51719;DHT22;37795;53.236;5.704;2023-05-03T10:13:34;11.20;55.80
51719;DHT22;37795;53.236;5.704;2023-05-03T10:16:05;10.80;54.40
51719;DHT22;37795;53.236;5.704;2023-05-03T10:18:39;11.10;56.60
51719;DHT22;37795;53.236;5.704;2023-05-03T10:21:15;11.30;55.60
51719;DHT22;37795;53.236;5.704;2023-05-03T10:24:08;11.40;53.10
51719;DHT22;37795;53.236;5.704;2023-05-03T10:26:34;11.60;55.10
51719;DHT22;37795;53.236;5.704;2023-05-03T10:28:59;11.60;54.10
51719;DHT22;37795;53.236;5.704;2023-05-03T10:31:46;12.00;54.50
51719;DHT22;37795;53.236;5.704;2023-05-03T10:34:22;12.10;53.80
51719;DHT22;37795;53.236;5.704;2023-05-03T10:36:50;12.00;53.30
51719;DHT22;37795;53.236;5.704;2023-05-03T10:39:20;12.00;54.40
51719;DHT22;37795;53.236;5.704;2023-05-03T10:42:07;12.40;52.60
51719;DHT22;37795;53.236;5.704;2023-05-03T10:44:53;11.70;53.20
51719;DHT22;37795;53.236;5.704;2023-05-03T10:47:23;12.00;52.80
51719;DHT22;37795;53.236;5.704;2023-05-03T10:56:30;12.30;52.10
51719;DHT22;37795;53.236;5.704;2023-05-03T10:58:56;12.00;54.20
51719;DHT22;37795;53.236;5.704;2023-05-03T11:01:23;12.30;55.50
51719;DHT22;37795;53.236;5.704;2023-05-03T11:06:30;12.00;53.20
51719;DHT22;37795;53.236;5.704;2023-05-03T11:09:00;12.10;52.70
51719;DHT22;37795;53.236;5.704;2023-05-03T11:11:27;12.10;53.00
51719;DHT22;37795;53.236;5.704;2023-05-03T11:13:53;11.90;53.60
51719;DHT22;37795;53.236;5.704;2023-05-03T11:16:18;12.00;53.00
51719;DHT22;37795;53.236;5.704;2023-05-03T11:18:45;12.60;52.30
51719;DHT22;37795;53.236;5.704;2023-05-03T11:21:13;12.70;51.90
51719;DHT22;37795;53.236;5.704;2023-05-03T11:23:41;12.50;51.60
51719;DHT22;37795;53.236;5.704;2023-05-03T11:26:10;12.70;51.80
51719;DHT22;37795;53.236;5.704;2023-05-03T11:28:40;12.70;50.20
51719;DHT22;37795;53.236;5.704;2023-05-03T11:31:10;12.90;49.70
51719;DHT22;37795;53.236;5.704;2023-05-03T11:33:38;13.20;52.60
51719;DHT22;37795;53.236;5.704;2023-05-03T11:36:05;12.80;51.30
51719;DHT22;37795;53.236;5.704;2023-05-03T11:38:33;12.90;50.60
51719;DHT22;37795;53.236;5.704;2023-05-03T11:41:00;12.80;52.70
51719;DHT22;37795;53.236;5.704;2023-05-03T11:43:40;13.30;53.90
51719;DHT22;37795;53.236;5.704;2023-05-03T11:46:06;12.60;50.00
51719;DHT22;37795;53.236;5.704;2023-05-03T11:48:33;12.90;51.80
51719;DHT22;37795;53.236;5.704;2023-05-03T11:51:05;13.10;51.10
51719;DHT22;37795;53.236;5.704;2023-05-03T11:53:31;12.90;49.30
51719;DHT22;37795;53.236;5.704;2023-05-03T11:55:59;12.90;50.90
51719;DHT22;37795;53.236;5.704;2023-05-03T11:58:25;13.00;50.30
51719;DHT22;37795;53.236;5.704;2023-05-03T12:00:56;12.40;52.20
51719;DHT22;37795;53.236;5.704;2023-05-03T12:03:29;12.70;52.80
51719;DHT22;37795;53.236;5.704;2023-05-03T12:05:57;13.00;51.10
51719;DHT22;37795;53.236;5.704;2023-05-03T12:08:32;12.60;51.80
51719;DHT22;37795;53.236;5.704;2023-05-03T12:11:01;12.60;51.00
51719;DHT22;37795;53.236;5.704;2023-05-03T12:13:36;13.00;52.10
51719;DHT22;37795;53.236;5.704;2023-05-03T12:16:03;12.90;52.10
51719;DHT22;37795;53.236;5.704;2023-05-03T12:18:51;13.00;52.80
51719;DHT22;37795;53.236;5.704;2023-05-03T12:21:20;13.10;50.80
51719;DHT22;37795;53.236;5.704;2023-05-03T12:23:46;13.00;51.10
51719;DHT22;37795;53.236;5.704;2023-05-03T12:26:15;13.20;52.60
51719;DHT22;37795;53.236;5.704;2023-05-03T12:28:41;13.50;51.10
51719;DHT22;37795;53.236;5.704;2023-05-03T12:31:07;13.00;50.50
51719;DHT22;37795;53.236;5.704;2023-05-03T12:33:33;13.80;51.80
51719;DHT22;37795;53.236;5.704;2023-05-03T12:35:58;14.40;49.50
51719;DHT22;37795;53.236;5.704;2023-05-03T12:38:24;15.00;49.10
51719;DHT22;37795;53.236;5.704;2023-05-03T12:40:50;14.90;47.10
51719;DHT22;37795;53.236;5.704;2023-05-03T12:43:17;14.60;47.90
51719;DHT22;37795;53.236;5.704;2023-05-03T12:45:43;14.50;48.20
51719;DHT22;37795;53.236;5.704;2023-05-03T12:48:08;13.70;50.50
51719;DHT22;37795;53.236;5.704;2023-05-03T12:50:34;14.10;48.60
51719;DHT22;37795;53.236;5.704;2023-05-03T12:53:00;14.60;48.00
51719;DHT22;37795;53.236;5.704;2023-05-03T12:55:26;14.00;48.10
51719;DHT22;37795;53.236;5.704;2023-05-03T12:57:52;13.70;49.10
51719;DHT22;37795;53.236;5.704;2023-05-03T13:00:18;14.30;49.70
51719;DHT22;37795;53.236;5.704;2023-05-03T13:02:44;14.70;48.90
51719;DHT22;37795;53.236;5.704;2023-05-03T13:05:10;15.00;47.70
51719;DHT22;37795;53.236;5.704;2023-05-03T13:07:38;15.30;47.50
51719;DHT22;37795;53.236;5.704;2023-05-03T13:10:05;15.10;47.10
51719;DHT22;37795;53.236;5.704;2023-05-03T13:12:31;14.80;47.90
51719;DHT22;37795;53.236;5.704;2023-05-03T13:14:57;14.00;48.40
51719;DHT22;37795;53.236;5.704;2023-05-03T13:17:23;14.00;49.70
51719;DHT22;37795;53.236;5.704;2023-05-03T13:19:50;14.20;48.50
51719;DHT22;37795;53.236;5.704;2023-05-03T13:22:17;14.70;49.60
51719;DHT22;37795;53.236;5.704;2023-05-03T13:24:44;14.90;49.00
51719;DHT22;37795;53.236;5.704;2023-05-03T13:27:10;15.10;47.40
51719;DHT22;37795;53.236;5.704;2023-05-03T13:29:37;15.30;47.90
51719;DHT22;37795;53.236;5.704;2023-05-03T13:32:02;15.20;45.80
51719;DHT22;37795;53.236;5.704;2023-05-03T13:34:28;15.20;46.20
51719;DHT22;37795;53.236;5.704;2023-05-03T13:36:55;14.60;47.10
51719;DHT22;37795;53.236;5.704;2023-05-03T13:39:21;15.00;48.30
51719;DHT22;37795;53.236;5.704;2023-05-03T13:41:47;15.30;49.30
51719;DHT22;37795;53.236;5.704;2023-05-03T13:44:13;15.30;48.30
51719;DHT22;37795;53.236;5.704;2023-05-03T13:46:39;15.10;48.60
51719;DHT22;37795;53.236;5.704;2023-05-03T13:49:05;15.60;46.30
51719;DHT22;37795;53.236;5.704;2023-05-03T13:51:33;15.60;47.10
51719;DHT22;37795;53.236;5.704;2023-05-03T13:54:00;15.60;46.90
51719;DHT22;37795;53.236;5.704;2023-05-03T13:56:26;15.90;46.60
51719;DHT22;37795;53.236;5.704;2023-05-03T13:58:52;15.70;48.00
51719;DHT22;37795;53.236;5.704;2023-05-03T14:01:17;15.80;47.70
51719;DHT22;37795;53.236;5.704;2023-05-03T14:03:43;16.00;47.30
51719;DHT22;37795;53.236;5.704;2023-05-03T14:06:09;16.20;47.60
51719;DHT22;37795;53.236;5.704;2023-05-03T14:08:35;15.90;46.70
51719;DHT22;37795;53.236;5.704;2023-05-03T14:11:01;15.50;46.10
51719;DHT22;37795;53.236;5.704;2023-05-03T14:13:27;15.30;47.10
51719;DHT22;37795;53.236;5.704;2023-05-03T14:15:53;15.30;47.30
51719;DHT22;37795;53.236;5.704;2023-05-03T14:18:19;15.10;47.30
51719;DHT22;37795;53.236;5.704;2023-05-03T14:20:45;15.30;47.70
51719;DHT22;37795;53.236;5.704;2023-05-03T14:23:15;15.80;47.50
51719;DHT22;37795;53.236;5.704;2023-05-03T14:25:41;15.60;47.00
51719;DHT22;37795;53.236;5.704;2023-05-03T14:28:07;14.90;46.70
51719;DHT22;37795;53.236;5.704;2023-05-03T14:30:33;15.50;46.60
51719;DHT22;37795;53.236;5.704;2023-05-03T14:32:59;15.30;47.60
51719;DHT22;37795;53.236;5.704;2023-05-03T14:35:24;15.20;46.90
51719;DHT22;37795;53.236;5.704;2023-05-03T14:37:51;15.00;47.50
51719;DHT22;37795;53.236;5.704;2023-05-03T14:40:17;14.90;46.80
51719;DHT22;37795;53.236;5.704;2023-05-03T14:42:42;14.60;47.40
51719;DHT22;37795;53.236;5.704;2023-05-03T14:45:09;15.10;47.30
51719;DHT22;37795;53.236;5.704;2023-05-03T14:47:41;15.30;46.50
51719;DHT22;37795;53.236;5.704;2023-05-03T14:50:07;15.80;48.30
51719;DHT22;37795;53.236;5.704;2023-05-03T14:52:34;15.40;47.70
51719;DHT22;37795;53.236;5.704;2023-05-03T14:55:00;15.30;48.20
51719;DHT22;37795;53.236;5.704;2023-05-03T14:57:26;15.50;47.90
51719;DHT22;37795;53.236;5.704;2023-05-03T14:59:52;15.40;46.80
51719;DHT22;37795;53.236;5.704;2023-05-03T15:02:18;15.50;47.90
51719;DHT22;37795;53.236;5.704;2023-05-03T15:04:44;14.60;48.00
51719;DHT22;37795;53.236;5.704;2023-05-03T15:07:09;14.90;49.50
51719;DHT22;37795;53.236;5.704;2023-05-03T15:09:36;15.40;47.20
51719;DHT22;37795;53.236;5.704;2023-05-03T15:12:03;15.50;47.30
51719;DHT22;37795;53.236;5.704;2023-05-03T15:14:29;15.10;47.20
51719;DHT22;37795;53.236;5.704;2023-05-03T15:16:56;15.10;47.00
51719;DHT22;37795;53.236;5.704;2023-05-03T15:19:21;15.00;48.40
51719;DHT22;37795;53.236;5.704;2023-05-03T15:21:49;14.90;48.40
51719;DHT22;37795;53.236;5.704;2023-05-03T15:24:15;14.70;48.10
51719;DHT22;37795;53.236;5.704;2023-05-03T15:26:41;14.40;48.00
51719;DHT22;37795;53.236;5.704;2023-05-03T15:34:00;14.40;50.00
51719;DHT22;37795;53.236;5.704;2023-05-03T15:36:26;13.60;50.60
51719;DHT22;37795;53.236;5.704;2023-05-03T15:38:52;13.20;51.90
51719;DHT22;37795;53.236;5.704;2023-05-03T15:41:18;13.40;51.80
51719;DHT22;37795;53.236;5.704;2023-05-03T15:43:44;13.50;51.40
51719;DHT22;37795;53.236;5.704;2023-05-03T15:46:10;13.00;53.00
51719;DHT22;37795;53.236;5.704;2023-05-03T15:48:36;13.00;51.90
51719;DHT22;37795;53.236;5.704;2023-05-03T15:51:02;13.10;52.30
51719;DHT22;37795;53.236;5.704;2023-05-03T15:53:28;12.80;52.70
51719;DHT22;37795;53.236;5.704;2023-05-03T15:55:54;12.70;52.30
51719;DHT22;37795;53.236;5.704;2023-05-03T15:58:25;12.60;52.80
51719;DHT22;37795;53.236;5.704;2023-05-03T16:00:53;12.60;54.40
51719;DHT22;37795;53.236;5.704;2023-05-03T16:03:20;12.80;54.10
51719;DHT22;37795;53.236;5.704;2023-05-03T16:05:46;12.80;52.70
51719;DHT22;37795;53.236;5.704;2023-05-03T16:08:12;12.70;53.30